PWSweather.com
Personal Weather Stations
Station Observations
KTXDECATUR
Wildwood, Decatur, TX 76234

WildwoodDecatur, TX 76234

Lat: 33.2634, Lon: -97.6651

Elevation: 800

Station Type: Davis Vantage Pro 2

http://weather.wildwoodnaturist.com

Latest ConditionsUpdated 11:50:01 AM CDT Wednesday, Sep 2, 2015
Currently Today's Max Today's Min Today's Average
Temperature 87.4°F30.8°C 87.6°F30.9°C 70.9°F21.6°C 76.9°F24.9°C
Dew Point 69.3°F20.7°C 71.8°F22.1°C 66.9°F19.4°C 68.9°F20.5°C
Winds 5.8 mph SSE9.3 kmh SSE 9.2 mph SE14.8 kmh SE - 4.1 mph 6.6 kmh
Wind Gusts 9.2 mph14.8 kmh 13.8 mph22.2 kmh - -
Humidity 55% 89% 55% 77%
Pressure 29.97 in1014.9 mb 30.00 in1015.9 mb 29.94 in1013.9 mb -
Hour Temp Dew Point Humidity Winds Wind Gusts Pressure Precip Precip Rate Daily Precip Total
11:50 AM 87.4°F30.8°C 69.3°F20.7°C 55% 5.8 mph SSE9.3 kmh SSE 9.2 mph14.8 kmh 29.97 in1014.9 mb - 0.00 in0.0 mm 0.00 in0.0 mm
11:45 AM 87.6°F30.9°C 69.4°F20.8°C 55% 5.8 mph S9.3 kmh S 12.7 mph20.4 kmh 29.98 in1015.2 mb - 0.00 in0.0 mm 0.00 in0.0 mm
11:40 AM 87.0°F30.6°C 70.4°F21.3°C 58% 8.1 mph S13.0 kmh S 13.8 mph22.2 kmh 29.98 in1015.2 mb - 0.00 in0.0 mm 0.00 in0.0 mm
11:30 AM 86.7°F30.4°C 69.6°F20.9°C 57% 9.2 mph S14.8 kmh S 11.5 mph18.5 kmh 29.98 in1015.2 mb - 0.00 in0.0 mm 0.00 in0.0 mm
11:20 AM 85.7°F29.8°C 70.2°F21.2°C 60% 5.8 mph SE9.3 kmh SE 9.2 mph14.8 kmh 29.98 in1015.2 mb - 0.00 in0.0 mm 0.00 in0.0 mm
11:15 AM 85.7°F29.8°C 71.2°F21.8°C 62% 4.6 mph SSE7.4 kmh SSE 8.1 mph13.0 kmh 29.99 in1015.6 mb - 0.00 in0.0 mm 0.00 in0.0 mm
11:10 AM 85.0°F29.4°C 70.5°F21.4°C 62% 3.5 mph SE5.6 kmh SE 6.9 mph11.1 kmh 29.98 in1015.2 mb - 0.00 in0.0 mm 0.00 in0.0 mm
11:00 AM 84.5°F29.2°C 71.0°F21.7°C 64% 9.2 mph SSE14.8 kmh SSE 12.7 mph20.4 kmh 29.99 in1015.6 mb - 0.00 in0.0 mm 0.00 in0.0 mm
10:50 AM 83.7°F28.7°C 70.7°F21.5°C 65% 8.1 mph SE13.0 kmh SE 10.4 mph16.7 kmh 29.98 in1015.2 mb - 0.00 in0.0 mm 0.00 in0.0 mm
10:45 AM 83.5°F28.6°C 70.5°F21.4°C 65% 6.9 mph SE11.1 kmh SE 8.1 mph13.0 kmh 29.98 in1015.2 mb - 0.00 in0.0 mm 0.00 in0.0 mm
10:40 AM 83.4°F28.6°C 71.3°F21.8°C 67% 5.8 mph SSE9.3 kmh SSE 10.4 mph16.7 kmh 29.99 in1015.6 mb - 0.00 in0.0 mm 0.00 in0.0 mm
10:30 AM 82.6°F28.1°C 71.8°F22.1°C 70% 6.9 mph SSE11.1 kmh SSE 11.5 mph18.5 kmh 29.99 in1015.6 mb - 0.00 in0.0 mm 0.00 in0.0 mm
10:20 AM 82.1°F27.8°C 71.3°F21.8°C 70% 9.2 mph SE14.8 kmh SE 11.5 mph18.5 kmh 29.99 in1015.6 mb - 0.00 in0.0 mm 0.00 in0.0 mm
10:15 AM 81.8°F27.7°C 71.5°F21.9°C 71% 8.1 mph S13.0 kmh S 11.5 mph18.5 kmh 30.00 in1015.9 mb - 0.00 in0.0 mm 0.00 in0.0 mm
10:10 AM 81.6°F27.6°C 71.2°F21.8°C 71% 6.9 mph S11.1 kmh S 9.2 mph14.8 kmh 29.99 in1015.6 mb - 0.00 in0.0 mm 0.00 in0.0 mm
10:00 AM 80.7°F27.1°C 71.2°F21.8°C 73% 5.8 mph SSW9.3 kmh SSW 10.4 mph16.7 kmh 29.99 in1015.6 mb - 0.00 in0.0 mm 0.00 in0.0 mm
09:50 AM 80.1°F26.7°C 71.0°F21.7°C 74% 5.8 mph S9.3 kmh S 8.1 mph13.0 kmh 30.00 in1015.9 mb - 0.00 in0.0 mm 0.00 in0.0 mm
09:45 AM 79.6°F26.4°C 70.6°F21.4°C 74% 3.5 mph SSW5.6 kmh SSW 9.2 mph14.8 kmh 30.00 in1015.9 mb - 0.00 in0.0 mm 0.00 in0.0 mm
09:40 AM 79.2°F26.2°C 71.0°F21.7°C 76% 4.6 mph S7.4 kmh S 5.8 mph9.3 kmh 30.00 in1015.9 mb - 0.00 in0.0 mm 0.00 in0.0 mm
09:30 AM 78.5°F25.8°C 70.7°F21.5°C 77% 4.6 mph SSW7.4 kmh SSW 5.8 mph9.3 kmh 30.00 in1015.9 mb - 0.00 in0.0 mm 0.00 in0.0 mm
09:20 AM 78.0°F25.6°C 70.6°F21.4°C 78% 4.6 mph S7.4 kmh S 8.1 mph13.0 kmh 30.00 in1015.9 mb - 0.00 in0.0 mm 0.00 in0.0 mm
09:15 AM 77.6°F25.3°C 70.6°F21.4°C 79% 4.6 mph SSW7.4 kmh SSW 6.9 mph11.1 kmh 30.00 in1015.9 mb - 0.00 in0.0 mm 0.00 in0.0 mm
09:10 AM 77.3°F25.2°C 70.6°F21.4°C 80% 5.8 mph SSE9.3 kmh SSE 8.1 mph13.0 kmh 30.00 in1015.9 mb - 0.00 in0.0 mm 0.00 in0.0 mm
09:00 AM 76.7°F24.8°C 70.4°F21.3°C 81% 5.8 mph SSE9.3 kmh SSE 9.2 mph14.8 kmh 30.00 in1015.9 mb - 0.00 in0.0 mm 0.00 in0.0 mm
08:50 AM 76.2°F24.6°C 70.3°F21.3°C 82% 4.6 mph SSE7.4 kmh SSE 9.2 mph14.8 kmh 30.00 in1015.9 mb - 0.00 in0.0 mm 0.00 in0.0 mm
08:45 AM 75.7°F24.3°C 70.2°F21.2°C 83% 3.5 mph SSE5.6 kmh SSE 6.9 mph11.1 kmh 30.00 in1015.9 mb - 0.00 in0.0 mm 0.00 in0.0 mm
08:40 AM 75.2°F24.0°C 70.0°F21.1°C 84% 5.8 mph SSE9.3 kmh SSE 8.1 mph13.0 kmh 30.00 in1015.9 mb - 0.00 in0.0 mm 0.00 in0.0 mm
08:30 AM 74.5°F23.6°C 69.7°F20.9°C 85% 4.6 mph S7.4 kmh S 9.2 mph14.8 kmh 30.00 in1015.9 mb - 0.00 in0.0 mm 0.00 in0.0 mm
08:20 AM 73.8°F23.2°C 69.4°F20.8°C 86% 2.3 mph S3.7 kmh S 5.8 mph9.3 kmh 30.00 in1015.9 mb - 0.00 in0.0 mm 0.00 in0.0 mm
08:15 AM 73.4°F23.0°C 69.3°F20.7°C 87% 4.6 mph S7.4 kmh S 6.9 mph11.1 kmh 30.00 in1015.9 mb - 0.00 in0.0 mm 0.00 in0.0 mm
08:00 AM 72.6°F22.6°C 68.8°F20.4°C 88% 4.6 mph SSE7.4 kmh SSE 8.1 mph13.0 kmh 30.00 in1015.9 mb - 0.00 in0.0 mm 0.00 in0.0 mm
07:50 AM 72.0°F22.2°C 68.6°F20.3°C 89% 2.3 mph SE3.7 kmh SE 3.5 mph5.6 kmh 29.99 in1015.6 mb - 0.00 in0.0 mm 0.00 in0.0 mm
07:45 AM 71.7°F22.1°C 68.3°F20.2°C 89% 2.3 mph SE3.7 kmh SE 3.5 mph5.6 kmh 29.99 in1015.6 mb - 0.00 in0.0 mm 0.00 in0.0 mm
07:40 AM 71.5°F21.9°C 68.1°F20.1°C 89% 3.5 mph SE5.6 kmh SE 4.6 mph7.4 kmh 29.99 in1015.6 mb - 0.00 in0.0 mm 0.00 in0.0 mm
07:30 AM 71.2°F21.8°C 67.8°F19.9°C 89% 1.2 mph SE1.9 kmh SE 3.5 mph5.6 kmh 29.99 in1015.6 mb - 0.00 in0.0 mm 0.00 in0.0 mm
07:20 AM 71.0°F21.7°C 67.6°F19.8°C 89% 2.3 mph SE3.7 kmh SE 3.5 mph5.6 kmh 29.99 in1015.6 mb - 0.00 in0.0 mm 0.00 in0.0 mm
07:15 AM 70.9°F21.6°C 67.5°F19.7°C 89% 1.2 mph SE1.9 kmh SE 4.6 mph7.4 kmh 29.99 in1015.6 mb - 0.00 in0.0 mm 0.00 in0.0 mm
07:10 AM 71.0°F21.7°C 67.6°F19.8°C 89% Calm Calm 3.5 mph5.6 kmh 29.99 in1015.6 mb - 0.00 in0.0 mm 0.00 in0.0 mm
07:00 AM 71.0°F21.7°C 67.6°F19.8°C 89% 1.2 mph SE1.9 kmh SE 3.5 mph5.6 kmh 29.98 in1015.2 mb - 0.00 in0.0 mm 0.00 in0.0 mm
06:50 AM 71.0°F21.7°C 67.3°F19.6°C 88% 3.5 mph SE5.6 kmh SE 5.8 mph9.3 kmh 29.97 in1014.9 mb - 0.00 in0.0 mm 0.00 in0.0 mm
06:45 AM 71.0°F21.7°C 67.3°F19.6°C 88% 2.3 mph SE3.7 kmh SE 6.9 mph11.1 kmh 29.97 in1014.9 mb - 0.00 in0.0 mm 0.00 in0.0 mm
06:40 AM 71.1°F21.7°C 67.4°F19.7°C 88% 3.5 mph SSE5.6 kmh SSE 5.8 mph9.3 kmh 29.97 in1014.9 mb - 0.00 in0.0 mm 0.00 in0.0 mm
06:30 AM 71.1°F21.7°C 67.4°F19.7°C 88% 2.3 mph SSE3.7 kmh SSE 5.8 mph9.3 kmh 29.97 in1014.9 mb - 0.00 in0.0 mm 0.00 in0.0 mm
06:20 AM 71.1°F21.7°C 67.4°F19.7°C 88% 1.2 mph SSE1.9 kmh SSE 3.5 mph5.6 kmh 29.96 in1014.6 mb - 0.00 in0.0 mm 0.00 in0.0 mm
06:15 AM 71.1°F21.7°C 67.0°F19.4°C 87% 2.3 mph SSE3.7 kmh SSE 4.6 mph7.4 kmh 29.96 in1014.6 mb - 0.00 in0.0 mm 0.00 in0.0 mm
06:10 AM 71.2°F21.8°C 67.1°F19.5°C 87% 1.2 mph SSE1.9 kmh SSE 5.8 mph9.3 kmh 29.96 in1014.6 mb - 0.00 in0.0 mm 0.00 in0.0 mm
06:00 AM 71.3°F21.8°C 67.2°F19.6°C 87% 1.2 mph SSE1.9 kmh SSE 2.3 mph3.7 kmh 29.96 in1014.6 mb - 0.00 in0.0 mm 0.00 in0.0 mm
05:50 AM 71.3°F21.8°C 66.9°F19.4°C 86% 2.3 mph SSE3.7 kmh SSE 3.5 mph5.6 kmh 29.96 in1014.6 mb - 0.00 in0.0 mm 0.00 in0.0 mm
05:45 AM 71.5°F21.9°C 67.1°F19.5°C 86% 2.3 mph SSE3.7 kmh SSE 2.3 mph3.7 kmh 29.96 in1014.6 mb - 0.00 in0.0 mm 0.00 in0.0 mm
05:40 AM 71.7°F22.1°C 67.0°F19.4°C 85% 1.2 mph SSE1.9 kmh SSE 2.3 mph3.7 kmh 29.96 in1014.6 mb - 0.00 in0.0 mm 0.00 in0.0 mm
05:30 AM 72.1°F22.3°C 67.0°F19.4°C 84% 1.2 mph SSE1.9 kmh SSE 1.2 mph1.9 kmh 29.96 in1014.6 mb - 0.00 in0.0 mm 0.00 in0.0 mm
05:20 AM 72.5°F22.5°C 67.4°F19.7°C 84% 1.2 mph SSE1.9 kmh SSE 2.3 mph3.7 kmh 29.96 in1014.6 mb - 0.00 in0.0 mm 0.00 in0.0 mm
05:15 AM 72.7°F22.6°C 67.3°F19.6°C 83% Calm Calm 1.2 mph1.9 kmh 29.96 in1014.6 mb - 0.00 in0.0 mm 0.00 in0.0 mm
05:10 AM 72.9°F22.7°C 67.4°F19.7°C 83% Calm Calm -- 29.96 in1014.6 mb - 0.00 in0.0 mm 0.00 in0.0 mm
05:00 AM 73.1°F22.8°C 67.6°F19.8°C 83% 2.3 mph SSE3.7 kmh SSE 5.8 mph9.3 kmh 29.96 in1014.6 mb - 0.00 in0.0 mm 0.00 in0.0 mm
04:50 AM 73.4°F23.0°C 67.6°F19.8°C 82% 2.3 mph SSE3.7 kmh SSE 3.5 mph5.6 kmh 29.96 in1014.6 mb - 0.00 in0.0 mm 0.00 in0.0 mm
04:45 AM 73.5°F23.1°C 67.7°F19.8°C 82% 2.3 mph SSE3.7 kmh SSE 3.5 mph5.6 kmh 29.96 in1014.6 mb - 0.00 in0.0 mm 0.00 in0.0 mm
04:40 AM 73.7°F23.2°C 67.5°F19.7°C 81% 2.3 mph SSE3.7 kmh SSE 3.5 mph5.6 kmh 29.96 in1014.6 mb - 0.00 in0.0 mm 0.00 in0.0 mm
04:30 AM 73.9°F23.3°C 67.7°F19.8°C 81% 2.3 mph S3.7 kmh S 4.6 mph7.4 kmh 29.96 in1014.6 mb - 0.00 in0.0 mm 0.00 in0.0 mm
04:20 AM 74.2°F23.4°C 67.6°F19.8°C 80% 1.2 mph S1.9 kmh S 3.5 mph5.6 kmh 29.96 in1014.6 mb - 0.00 in0.0 mm 0.00 in0.0 mm
04:15 AM 74.3°F23.5°C 67.7°F19.8°C 80% 3.5 mph SSE5.6 kmh SSE 6.9 mph11.1 kmh 29.96 in1014.6 mb - 0.00 in0.0 mm 0.00 in0.0 mm
04:10 AM 74.4°F23.6°C 67.8°F19.9°C 80% 2.3 mph SSE3.7 kmh SSE 3.5 mph5.6 kmh 29.96 in1014.6 mb - 0.00 in0.0 mm 0.00 in0.0 mm
04:00 AM 74.6°F23.7°C 67.7°F19.8°C 79% 3.5 mph SSE5.6 kmh SSE 4.6 mph7.4 kmh 29.96 in1014.6 mb - 0.00 in0.0 mm 0.00 in0.0 mm
03:50 AM 74.9°F23.8°C 67.9°F19.9°C 79% 3.5 mph SSE5.6 kmh SSE 5.8 mph9.3 kmh 29.96 in1014.6 mb - 0.00 in0.0 mm 0.00 in0.0 mm
03:45 AM 75.1°F23.9°C 67.8°F19.9°C 78% 3.5 mph SSE5.6 kmh SSE 6.9 mph11.1 kmh 29.96 in1014.6 mb - 0.00 in0.0 mm 0.00 in0.0 mm
03:40 AM 75.2°F24.0°C 67.9°F19.9°C 78% 3.5 mph SE5.6 kmh SE 9.2 mph14.8 kmh 29.96 in1014.6 mb - 0.00 in0.0 mm 0.00 in0.0 mm
03:30 AM 75.6°F24.2°C 67.9°F19.9°C 77% 4.6 mph SE7.4 kmh SE 6.9 mph11.1 kmh 29.95 in1014.2 mb - 0.00 in0.0 mm 0.00 in0.0 mm
03:20 AM 76.0°F24.4°C 67.9°F19.9°C 76% 2.3 mph SSE3.7 kmh SSE 3.5 mph5.6 kmh 29.95 in1014.2 mb - 0.00 in0.0 mm 0.00 in0.0 mm
03:15 AM 76.2°F24.6°C 68.1°F20.1°C 76% 3.5 mph SSE5.6 kmh SSE 5.8 mph9.3 kmh 29.95 in1014.2 mb - 0.00 in0.0 mm 0.00 in0.0 mm
03:10 AM 76.4°F24.7°C 68.3°F20.2°C 76% 3.5 mph SSE5.6 kmh SSE 4.6 mph7.4 kmh 29.95 in1014.2 mb - 0.00 in0.0 mm 0.00 in0.0 mm
03:00 AM 76.7°F24.8°C 68.2°F20.1°C 75% 5.8 mph S9.3 kmh S 10.4 mph16.7 kmh 29.96 in1014.6 mb - 0.00 in0.0 mm 0.00 in0.0 mm
02:50 AM 77.0°F25.0°C 68.5°F20.3°C 75% 4.6 mph S7.4 kmh S 8.1 mph13.0 kmh 29.96 in1014.6 mb - 0.00 in0.0 mm 0.00 in0.0 mm
02:45 AM 77.2°F25.1°C 68.3°F20.2°C 74% 6.9 mph S11.1 kmh S 10.4 mph16.7 kmh 29.96 in1014.6 mb - 0.00 in0.0 mm 0.00 in0.0 mm
02:40 AM 77.4°F25.2°C 68.5°F20.3°C 74% 5.8 mph S9.3 kmh S 11.5 mph18.5 kmh 29.95 in1014.2 mb - 0.00 in0.0 mm 0.00 in0.0 mm
02:30 AM 77.7°F25.4°C 68.7°F20.4°C 74% 4.6 mph SSE7.4 kmh SSE 8.1 mph13.0 kmh 29.95 in1014.2 mb - 0.00 in0.0 mm 0.00 in0.0 mm
02:20 AM 78.0°F25.6°C 68.6°F20.3°C 73% 4.6 mph SSE7.4 kmh SSE 10.4 mph16.7 kmh 29.95 in1014.2 mb - 0.00 in0.0 mm 0.00 in0.0 mm
02:15 AM 78.1°F25.6°C 68.8°F20.4°C 73% 5.8 mph SSE9.3 kmh SSE 11.5 mph18.5 kmh 29.95 in1014.2 mb - 0.00 in0.0 mm 0.00 in0.0 mm
02:10 AM 78.2°F25.7°C 68.9°F20.5°C 73% 4.6 mph SSE7.4 kmh SSE 10.4 mph16.7 kmh 29.95 in1014.2 mb - 0.00 in0.0 mm 0.00 in0.0 mm
02:00 AM 78.4°F25.8°C 69.0°F20.6°C 73% 5.8 mph SE9.3 kmh SE 10.4 mph16.7 kmh 29.96 in1014.6 mb - 0.00 in0.0 mm 0.00 in0.0 mm
01:50 AM 78.5°F25.8°C 69.2°F20.7°C 73% 8.1 mph S13.0 kmh S 10.4 mph16.7 kmh 29.95 in1014.2 mb - 0.00 in0.0 mm 0.00 in0.0 mm
01:45 AM 78.6°F25.9°C 69.2°F20.7°C 73% 3.5 mph S5.6 kmh S 5.8 mph9.3 kmh 29.95 in1014.2 mb - 0.00 in0.0 mm 0.00 in0.0 mm
01:40 AM 78.7°F25.9°C 69.3°F20.7°C 73% 3.5 mph SE5.6 kmh SE 4.6 mph7.4 kmh 29.95 in1014.2 mb - 0.00 in0.0 mm 0.00 in0.0 mm
01:30 AM 78.9°F26.1°C 69.5°F20.8°C 73% 3.5 mph SE5.6 kmh SE 6.9 mph11.1 kmh 29.95 in1014.2 mb - 0.00 in0.0 mm 0.00 in0.0 mm
01:20 AM 79.2°F26.2°C 69.4°F20.8°C 72% 4.6 mph SE7.4 kmh SE 6.9 mph11.1 kmh 29.95 in1014.2 mb - 0.00 in0.0 mm 0.00 in0.0 mm
01:15 AM 79.4°F26.3°C 69.2°F20.7°C 71% 6.9 mph SE11.1 kmh SE 9.2 mph14.8 kmh 29.95 in1014.2 mb - 0.00 in0.0 mm 0.00 in0.0 mm
01:10 AM 79.5°F26.4°C 69.3°F20.7°C 71% 3.5 mph SE5.6 kmh SE 5.8 mph9.3 kmh 29.95 in1014.2 mb - 0.00 in0.0 mm 0.00 in0.0 mm
01:00 AM 79.6°F26.4°C 69.4°F20.8°C 71% 5.8 mph SE9.3 kmh SE 10.4 mph16.7 kmh 29.94 in1013.9 mb - 0.00 in0.0 mm 0.00 in0.0 mm
12:50 AM 79.9°F26.6°C 69.7°F20.9°C 71% 5.8 mph SE9.3 kmh SE 9.2 mph14.8 kmh 29.94 in1013.9 mb - 0.00 in0.0 mm 0.00 in0.0 mm
12:45 AM 80.1°F26.7°C 69.4°F20.8°C 70% 4.6 mph SE7.4 kmh SE 8.1 mph13.0 kmh 29.95 in1014.2 mb - 0.00 in0.0 mm 0.00 in0.0 mm
12:40 AM 80.2°F26.8°C 69.5°F20.8°C 70% 4.6 mph SE7.4 kmh SE 9.2 mph14.8 kmh 29.95 in1014.2 mb - 0.00 in0.0 mm 0.00 in0.0 mm
12:30 AM 80.3°F26.8°C 69.6°F20.9°C 70% 5.8 mph SE9.3 kmh SE 5.8 mph9.3 kmh 29.94 in1013.9 mb - 0.00 in0.0 mm 0.00 in0.0 mm
12:20 AM 80.5°F26.9°C 69.8°F21.0°C 70% 4.6 mph SE7.4 kmh SE 8.1 mph13.0 kmh 29.94 in1013.9 mb - 0.00 in0.0 mm 0.00 in0.0 mm
12:15 AM 80.6°F27.0°C 69.9°F21.1°C 70% 3.5 mph SE5.6 kmh SE 9.2 mph14.8 kmh 29.95 in1014.2 mb - 0.00 in0.0 mm 0.00 in0.0 mm
12:10 AM 80.7°F27.1°C 70.0°F21.1°C 70% 4.6 mph SE7.4 kmh SE 6.9 mph11.1 kmh 29.95 in1014.2 mb - 0.00 in0.0 mm 0.00 in0.0 mm
12:00 AM 80.9°F27.2°C 69.8°F21.0°C 69% 4.6 mph SE7.4 kmh SE 8.1 mph13.0 kmh 29.95 in1014.2 mb - 0.00 in0.0 mm 0.00 in0.0 mm